sensor_id;sensor_type;location;lat;lon;timestamp;P1;durP1;ratioP1;P2;durP2;ratioP2
40953;SDS011;26686;50.130;8.710;2024-03-06T00:03:03;6.05;;;5.38;;
40953;SDS011;26686;50.130;8.710;2024-03-06T00:08:04;6.03;;;5.43;;
40953;SDS011;26686;50.130;8.710;2024-03-06T00:13:06;8.05;;;7.25;;
40953;SDS011;26686;50.130;8.710;2024-03-06T00:18:08;9.43;;;8.02;;
40953;SDS011;26686;50.130;8.710;2024-03-06T00:23:09;8.82;;;7.78;;
40953;SDS011;26686;50.130;8.710;2024-03-06T00:28:11;8.82;;;7.95;;
40953;SDS011;26686;50.130;8.710;2024-03-06T00:33:12;8.23;;;7.43;;
40953;SDS011;26686;50.130;8.710;2024-03-06T00:38:14;8.85;;;7.95;;
40953;SDS011;26686;50.130;8.710;2024-03-06T00:43:15;9.98;;;8.73;;
40953;SDS011;26686;50.130;8.710;2024-03-06T00:48:17;11.02;;;9.45;;
40953;SDS011;26686;50.130;8.710;2024-03-06T00:53:22;8.10;;;7.30;;
40953;SDS011;26686;50.130;8.710;2024-03-06T00:58:23;8.02;;;6.85;;
40953;SDS011;26686;50.130;8.710;2024-03-06T01:03:24;8.57;;;7.78;;
40953;SDS011;26686;50.130;8.710;2024-03-06T01:08:26;9.98;;;8.15;;
40953;SDS011;26686;50.130;8.710;2024-03-06T01:13:27;9.48;;;7.13;;
40953;SDS011;26686;50.130;8.710;2024-03-06T01:18:29;8.13;;;7.32;;
40953;SDS011;26686;50.130;8.710;2024-03-06T01:23:31;10.63;;;8.35;;
40953;SDS011;26686;50.130;8.710;2024-03-06T01:28:33;8.00;;;7.20;;
40953;SDS011;26686;50.130;8.710;2024-03-06T01:33:34;8.35;;;7.38;;
40953;SDS011;26686;50.130;8.710;2024-03-06T01:38:35;8.23;;;7.43;;
40953;SDS011;26686;50.130;8.710;2024-03-06T01:43:37;8.50;;;7.63;;
40953;SDS011;26686;50.130;8.710;2024-03-06T01:48:41;8.48;;;7.68;;
40953;SDS011;26686;50.130;8.710;2024-03-06T01:53:44;9.05;;;7.82;;
40953;SDS011;26686;50.130;8.710;2024-03-06T01:58:48;10.27;;;9.10;;
40953;SDS011;26686;50.130;8.710;2024-03-06T02:03:50;8.25;;;7.20;;
40953;SDS011;26686;50.130;8.710;2024-03-06T02:08:52;8.93;;;7.47;;
40953;SDS011;26686;50.130;8.710;2024-03-06T02:13:55;9.88;;;8.02;;
40953;SDS011;26686;50.130;8.710;2024-03-06T02:18:57;9.65;;;8.65;;
40953;SDS011;26686;50.130;8.710;2024-03-06T02:23:59;8.82;;;7.88;;
40953;SDS011;26686;50.130;8.710;2024-03-06T02:29:00;9.85;;;8.80;;
40953;SDS011;26686;50.130;8.710;2024-03-06T02:34:02;9.52;;;8.40;;
40953;SDS011;26686;50.130;8.710;2024-03-06T02:39:07;10.15;;;8.43;;
40953;SDS011;26686;50.130;8.710;2024-03-06T02:44:10;8.45;;;7.57;;
40953;SDS011;26686;50.130;8.710;2024-03-06T02:49:11;9.88;;;8.80;;
40953;SDS011;26686;50.130;8.710;2024-03-06T02:54:13;10.15;;;8.52;;
40953;SDS011;26686;50.130;8.710;2024-03-06T02:59:14;9.63;;;8.65;;
40953;SDS011;26686;50.130;8.710;2024-03-06T03:04:16;9.80;;;8.30;;
40953;SDS011;26686;50.130;8.710;2024-03-06T03:09:20;8.75;;;7.85;;
40953;SDS011;26686;50.130;8.710;2024-03-06T03:14:22;9.18;;;8.27;;
40953;SDS011;26686;50.130;8.710;2024-03-06T03:19:24;9.98;;;8.63;;
40953;SDS011;26686;50.130;8.710;2024-03-06T03:24:26;10.07;;;8.50;;
40953;SDS011;26686;50.130;8.710;2024-03-06T03:29:27;9.15;;;8.25;;
40953;SDS011;26686;50.130;8.710;2024-03-06T03:34:29;7.93;;;7.18;;
40953;SDS011;26686;50.130;8.710;2024-03-06T03:39:31;8.85;;;8.05;;
40953;SDS011;26686;50.130;8.710;2024-03-06T03:44:33;9.43;;;8.20;;
40953;SDS011;26686;50.130;8.710;2024-03-06T03:49:34;8.57;;;7.68;;
40953;SDS011;26686;50.130;8.710;2024-03-06T03:54:36;9.50;;;8.55;;
40953;SDS011;26686;50.130;8.710;2024-03-06T03:59:39;8.48;;;7.68;;
40953;SDS011;26686;50.130;8.710;2024-03-06T04:04:42;8.07;;;7.28;;
40953;SDS011;26686;50.130;8.710;2024-03-06T04:09:43;8.25;;;7.45;;
40953;SDS011;26686;50.130;8.710;2024-03-06T04:14:45;7.80;;;7.00;;
40953;SDS011;26686;50.130;8.710;2024-03-06T04:19:46;7.85;;;7.05;;
40953;SDS011;26686;50.130;8.710;2024-03-06T04:24:49;7.38;;;6.55;;
40953;SDS011;26686;50.130;8.710;2024-03-06T04:29:51;9.00;;;7.05;;
40953;SDS011;26686;50.130;8.710;2024-03-06T04:34:53;9.70;;;7.35;;
40953;SDS011;26686;50.130;8.710;2024-03-06T04:39:57;7.25;;;6.55;;
40953;SDS011;26686;50.130;8.710;2024-03-06T04:45:17;7.15;;;6.50;;
40953;SDS011;26686;50.130;8.710;2024-03-06T04:50:19;8.68;;;6.72;;
40953;SDS011;26686;50.130;8.710;2024-03-06T04:55:20;8.93;;;8.02;;
40953;SDS011;26686;50.130;8.710;2024-03-06T05:00:24;9.65;;;8.75;;
40953;SDS011;26686;50.130;8.710;2024-03-06T05:05:26;10.10;;;9.07;;
40953;SDS011;26686;50.130;8.710;2024-03-06T05:10:45;9.20;;;8.38;;
40953;SDS011;26686;50.130;8.710;2024-03-06T05:16:05;10.80;;;9.70;;
40953;SDS011;26686;50.130;8.710;2024-03-06T05:21:25;11.10;;;9.93;;
40953;SDS011;26686;50.130;8.710;2024-03-06T05:26:46;10.05;;;9.05;;
40953;SDS011;26686;50.130;8.710;2024-03-06T05:32:05;10.52;;;8.20;;
40953;SDS011;26686;50.130;8.710;2024-03-06T05:37:25;7.60;;;6.90;;
40953;SDS011;26686;50.130;8.710;2024-03-06T05:42:44;9.13;;;8.07;;
40953;SDS011;26686;50.130;8.710;2024-03-06T05:48:03;10.43;;;8.70;;
40953;SDS011;26686;50.130;8.710;2024-03-06T05:53:22;10.65;;;9.63;;
40953;SDS011;26686;50.130;8.710;2024-03-06T05:58:42;12.57;;;11.15;;
40953;SDS011;26686;50.130;8.710;2024-03-06T06:03:47;12.25;;;10.45;;
40953;SDS011;26686;50.130;8.710;2024-03-06T06:08:51;10.83;;;9.73;;
40953;SDS011;26686;50.130;8.710;2024-03-06T06:13:53;10.23;;;9.13;;
40953;SDS011;26686;50.130;8.710;2024-03-06T06:18:54;10.30;;;8.95;;
40953;SDS011;26686;50.130;8.710;2024-03-06T06:23:56;10.65;;;9.52;;
40953;SDS011;26686;50.130;8.710;2024-03-06T06:28:57;10.57;;;9.57;;
40953;SDS011;26686;50.130;8.710;2024-03-06T06:33:59;12.70;;;10.40;;
40953;SDS011;26686;50.130;8.710;2024-03-06T06:39:02;10.80;;;9.80;;
40953;SDS011;26686;50.130;8.710;2024-03-06T06:44:07;13.07;;;11.13;;
40953;SDS011;26686;50.130;8.710;2024-03-06T06:49:09;11.55;;;10.35;;
40953;SDS011;26686;50.130;8.710;2024-03-06T06:54:13;40.28;;;17.48;;
40953;SDS011;26686;50.130;8.710;2024-03-06T06:59:14;18.00;;;12.75;;
40953;SDS011;26686;50.130;8.710;2024-03-06T07:04:17;12.43;;;11.13;;
40953;SDS011;26686;50.130;8.710;2024-03-06T07:09:21;12.73;;;11.05;;
40953;SDS011;26686;50.130;8.710;2024-03-06T07:14:23;14.73;;;11.50;;
40953;SDS011;26686;50.130;8.710;2024-03-06T07:19:25;14.93;;;12.35;;
40953;SDS011;26686;50.130;8.710;2024-03-06T07:24:27;13.52;;;12.13;;
40953;SDS011;26686;50.130;8.710;2024-03-06T07:29:36;14.95;;;12.52;;
40953;SDS011;26686;50.130;8.710;2024-03-06T07:34:38;14.45;;;12.30;;
40953;SDS011;26686;50.130;8.710;2024-03-06T07:39:39;14.65;;;13.18;;
40953;SDS011;26686;50.130;8.710;2024-03-06T07:44:41;15.95;;;12.85;;
40953;SDS011;26686;50.130;8.710;2024-03-06T07:49:42;15.75;;;13.00;;
40953;SDS011;26686;50.130;8.710;2024-03-06T07:54:46;17.58;;;13.65;;
40953;SDS011;26686;50.130;8.710;2024-03-06T07:59:54;16.00;;;13.55;;
40953;SDS011;26686;50.130;8.710;2024-03-06T08:04:56;15.95;;;13.55;;
40953;SDS011;26686;50.130;8.710;2024-03-06T08:09:58;14.77;;;13.27;;
40953;SDS011;26686;50.130;8.710;2024-03-06T08:14:59;14.57;;;13.25;;
40953;SDS011;26686;50.130;8.710;2024-03-06T08:20:03;15.45;;;13.75;;
40953;SDS011;26686;50.130;8.710;2024-03-06T08:25:09;16.02;;;13.35;;
40953;SDS011;26686;50.130;8.710;2024-03-06T08:30:12;14.40;;;13.00;;
40953;SDS011;26686;50.130;8.710;2024-03-06T08:35:14;15.05;;;13.48;;
40953;SDS011;26686;50.130;8.710;2024-03-06T08:40:21;15.88;;;13.65;;
40953;SDS011;26686;50.130;8.710;2024-03-06T08:45:24;17.75;;;14.38;;
40953;SDS011;26686;50.130;8.710;2024-03-06T08:50:26;19.30;;;14.70;;
40953;SDS011;26686;50.130;8.710;2024-03-06T08:55:29;18.60;;;16.33;;
40953;SDS011;26686;50.130;8.710;2024-03-06T09:00:30;20.73;;;16.00;;
40953;SDS011;26686;50.130;8.710;2024-03-06T09:05:32;19.20;;;15.05;;
40953;SDS011;26686;50.130;8.710;2024-03-06T09:10:34;18.02;;;15.80;;
40953;SDS011;26686;50.130;8.710;2024-03-06T09:15:35;17.60;;;15.52;;
40953;SDS011;26686;50.130;8.710;2024-03-06T09:20:37;20.13;;;17.05;;
40953;SDS011;26686;50.130;8.710;2024-03-06T09:25:38;18.23;;;15.85;;
40953;SDS011;26686;50.130;8.710;2024-03-06T09:30:41;20.15;;;17.00;;
40953;SDS011;26686;50.130;8.710;2024-03-06T09:35:43;18.88;;;16.55;;
40953;SDS011;26686;50.130;8.710;2024-03-06T09:40:48;21.93;;;17.10;;
40953;SDS011;26686;50.130;8.710;2024-03-06T09:45:50;23.80;;;18.55;;
40953;SDS011;26686;50.130;8.710;2024-03-06T09:50:52;18.77;;;15.65;;
40953;SDS011;26686;50.130;8.710;2024-03-06T09:55:56;19.50;;;16.52;;
40953;SDS011;26686;50.130;8.710;2024-03-06T10:00:59;22.75;;;18.13;;
40953;SDS011;26686;50.130;8.710;2024-03-06T10:06:02;20.70;;;16.70;;
40953;SDS011;26686;50.130;8.710;2024-03-06T10:11:09;21.38;;;17.05;;
40953;SDS011;26686;50.130;8.710;2024-03-06T10:16:12;19.30;;;16.02;;
40953;SDS011;26686;50.130;8.710;2024-03-06T10:21:15;19.30;;;16.98;;
40953;SDS011;26686;50.130;8.710;2024-03-06T10:26:21;18.65;;;16.65;;
40953;SDS011;26686;50.130;8.710;2024-03-06T10:31:26;21.30;;;18.55;;
40953;SDS011;26686;50.130;8.710;2024-03-06T10:36:32;21.45;;;18.40;;
40953;SDS011;26686;50.130;8.710;2024-03-06T10:41:35;20.02;;;15.60;;
40953;SDS011;26686;50.130;8.710;2024-03-06T10:46:36;18.55;;;15.45;;
40953;SDS011;26686;50.130;8.710;2024-03-06T10:51:39;18.65;;;16.50;;
40953;SDS011;26686;50.130;8.710;2024-03-06T10:56:46;19.33;;;16.15;;
40953;SDS011;26686;50.130;8.710;2024-03-06T11:01:48;19.98;;;15.85;;
40953;SDS011;26686;50.130;8.710;2024-03-06T11:06:50;17.90;;;15.73;;
40953;SDS011;26686;50.130;8.710;2024-03-06T11:11:52;17.17;;;15.10;;
40953;SDS011;26686;50.130;8.710;2024-03-06T11:17:10;19.00;;;16.70;;
40953;SDS011;26686;50.130;8.710;2024-03-06T11:22:12;16.58;;;14.57;;
40953;SDS011;26686;50.130;8.710;2024-03-06T11:27:14;17.23;;;14.75;;
40953;SDS011;26686;50.130;8.710;2024-03-06T11:32:16;15.25;;;13.55;;
40953;SDS011;26686;50.130;8.710;2024-03-06T11:37:20;16.63;;;13.93;;
40953;SDS011;26686;50.130;8.710;2024-03-06T11:42:32;18.17;;;15.10;;
40953;SDS011;26686;50.130;8.710;2024-03-06T11:47:55;15.60;;;13.70;;
40953;SDS011;26686;50.130;8.710;2024-03-06T11:52:57;16.75;;;14.98;;
40953;SDS011;26686;50.130;8.710;2024-03-06T11:57:59;16.15;;;13.30;;
40953;SDS011;26686;50.130;8.710;2024-03-06T12:03:00;15.93;;;13.85;;
40953;SDS011;26686;50.130;8.710;2024-03-06T12:08:02;17.40;;;14.40;;
40953;SDS011;26686;50.130;8.710;2024-03-06T12:13:04;14.95;;;13.32;;
40953;SDS011;26686;50.130;8.710;2024-03-06T12:18:06;16.20;;;14.40;;
40953;SDS011;26686;50.130;8.710;2024-03-06T12:23:09;17.35;;;13.70;;
40953;SDS011;26686;50.130;8.710;2024-03-06T12:28:10;14.90;;;12.57;;
40953;SDS011;26686;50.130;8.710;2024-03-06T12:33:16;14.27;;;12.77;;
40953;SDS011;26686;50.130;8.710;2024-03-06T12:38:18;15.80;;;13.48;;
40953;SDS011;26686;50.130;8.710;2024-03-06T12:43:20;16.02;;;13.13;;
40953;SDS011;26686;50.130;8.710;2024-03-06T12:48:21;14.00;;;12.00;;
40953;SDS011;26686;50.130;8.710;2024-03-06T12:53:23;15.73;;;13.77;;
40953;SDS011;26686;50.130;8.710;2024-03-06T12:58:27;14.82;;;13.32;;
40953;SDS011;26686;50.130;8.710;2024-03-06T13:03:29;15.25;;;11.77;;
40953;SDS011;26686;50.130;8.710;2024-03-06T13:08:31;14.73;;;12.95;;
40953;SDS011;26686;50.130;8.710;2024-03-06T13:13:33;14.93;;;12.30;;
40953;SDS011;26686;50.130;8.710;2024-03-06T13:18:36;14.73;;;11.82;;
40953;SDS011;26686;50.130;8.710;2024-03-06T13:23:39;14.30;;;12.43;;
40953;SDS011;26686;50.130;8.710;2024-03-06T13:28:42;13.15;;;10.23;;
40953;SDS011;26686;50.130;8.710;2024-03-06T13:33:43;14.20;;;12.13;;
40953;SDS011;26686;50.130;8.710;2024-03-06T13:38:45;14.38;;;12.20;;
40953;SDS011;26686;50.130;8.710;2024-03-06T13:43:48;14.45;;;12.95;;
40953;SDS011;26686;50.130;8.710;2024-03-06T13:48:50;13.20;;;11.50;;
40953;SDS011;26686;50.130;8.710;2024-03-06T13:53:51;14.52;;;12.50;;
40953;SDS011;26686;50.130;8.710;2024-03-06T13:58:53;14.27;;;12.50;;
40953;SDS011;26686;50.130;8.710;2024-03-06T14:03:55;14.75;;;12.45;;
40953;SDS011;26686;50.130;8.710;2024-03-06T14:08:58;14.60;;;11.85;;
40953;SDS011;26686;50.130;8.710;2024-03-06T14:13:59;16.33;;;13.25;;
40953;SDS011;26686;50.130;8.710;2024-03-06T14:19:02;13.75;;;11.32;;
40953;SDS011;26686;50.130;8.710;2024-03-06T14:24:05;10.87;;;9.63;;
40953;SDS011;26686;50.130;8.710;2024-03-06T14:29:08;14.48;;;12.43;;
40953;SDS011;26686;50.130;8.710;2024-03-06T14:34:11;15.70;;;12.25;;
40953;SDS011;26686;50.130;8.710;2024-03-06T14:39:12;13.90;;;11.25;;
40953;SDS011;26686;50.130;8.710;2024-03-06T14:44:16;17.23;;;13.03;;
40953;SDS011;26686;50.130;8.710;2024-03-06T14:49:17;13.45;;;10.40;;
40953;SDS011;26686;50.130;8.710;2024-03-06T14:54:21;12.32;;;10.57;;
40953;SDS011;26686;50.130;8.710;2024-03-06T14:59:29;12.93;;;11.63;;
40953;SDS011;26686;50.130;8.710;2024-03-06T15:04:31;13.13;;;11.75;;
40953;SDS011;26686;50.130;8.710;2024-03-06T15:09:32;13.45;;;11.85;;
40953;SDS011;26686;50.130;8.710;2024-03-06T15:14:33;13.07;;;10.75;;
40953;SDS011;26686;50.130;8.710;2024-03-06T15:19:46;12.48;;;9.70;;
40953;SDS011;26686;50.130;8.710;2024-03-06T15:24:47;13.20;;;11.02;;
40953;SDS011;26686;50.130;8.710;2024-03-06T15:29:55;14.27;;;11.30;;
40953;SDS011;26686;50.130;8.710;2024-03-06T15:34:56;12.18;;;10.88;;
40953;SDS011;26686;50.130;8.710;2024-03-06T15:45:05;12.05;;;10.50;;
40953;SDS011;26686;50.130;8.710;2024-03-06T15:50:07;13.43;;;10.55;;
40953;SDS011;26686;50.130;8.710;2024-03-06T15:55:12;14.50;;;11.57;;
40953;SDS011;26686;50.130;8.710;2024-03-06T16:00:14;13.10;;;11.23;;
40953;SDS011;26686;50.130;8.710;2024-03-06T16:05:19;13.85;;;11.80;;
40953;SDS011;26686;50.130;8.710;2024-03-06T16:10:21;11.85;;;10.55;;
40953;SDS011;26686;50.130;8.710;2024-03-06T16:15:23;12.93;;;11.45;;
40953;SDS011;26686;50.130;8.710;2024-03-06T16:20:25;13.25;;;11.77;;
40953;SDS011;26686;50.130;8.710;2024-03-06T16:25:28;13.57;;;11.35;;
40953;SDS011;26686;50.130;8.710;2024-03-06T16:30:29;14.32;;;12.82;;
40953;SDS011;26686;50.130;8.710;2024-03-06T16:35:31;13.52;;;11.90;;
40953;SDS011;26686;50.130;8.710;2024-03-06T16:40:33;14.95;;;12.85;;
40953;SDS011;26686;50.130;8.710;2024-03-06T16:45:35;16.73;;;13.40;;
40953;SDS011;26686;50.130;8.710;2024-03-06T16:50:37;18.42;;;13.40;;
40953;SDS011;26686;50.130;8.710;2024-03-06T16:55:38;16.17;;;14.48;;
40953;SDS011;26686;50.130;8.710;2024-03-06T17:00:42;17.57;;;15.13;;
40953;SDS011;26686;50.130;8.710;2024-03-06T17:05:44;19.38;;;15.35;;
40953;SDS011;26686;50.130;8.710;2024-03-06T17:10:46;18.10;;;16.00;;
40953;SDS011;26686;50.130;8.710;2024-03-06T17:15:49;20.90;;;17.23;;
40953;SDS011;26686;50.130;8.710;2024-03-06T17:20:52;20.55;;;17.33;;
40953;SDS011;26686;50.130;8.710;2024-03-06T17:25:54;18.60;;;16.23;;
40953;SDS011;26686;50.130;8.710;2024-03-06T17:30:56;21.42;;;17.35;;
40953;SDS011;26686;50.130;8.710;2024-03-06T17:35:58;29.45;;;21.48;;
40953;SDS011;26686;50.130;8.710;2024-03-06T17:41:00;28.95;;;22.40;;
40953;SDS011;26686;50.130;8.710;2024-03-06T17:46:04;23.45;;;20.42;;
40953;SDS011;26686;50.130;8.710;2024-03-06T17:51:07;22.45;;;19.75;;
40953;SDS011;26686;50.130;8.710;2024-03-06T17:56:09;22.38;;;18.50;;
40953;SDS011;26686;50.130;8.710;2024-03-06T18:01:10;22.88;;;19.42;;
40953;SDS011;26686;50.130;8.710;2024-03-06T18:06:12;24.13;;;20.65;;
40953;SDS011;26686;50.130;8.710;2024-03-06T18:11:14;24.80;;;21.35;;
40953;SDS011;26686;50.130;8.710;2024-03-06T18:16:16;25.15;;;20.90;;
40953;SDS011;26686;50.130;8.710;2024-03-06T18:21:17;29.55;;;21.85;;
40953;SDS011;26686;50.130;8.710;2024-03-06T18:26:19;25.40;;;20.50;;
40953;SDS011;26686;50.130;8.710;2024-03-06T18:31:22;28.65;;;22.83;;
40953;SDS011;26686;50.130;8.710;2024-03-06T18:36:25;25.10;;;22.40;;
40953;SDS011;26686;50.130;8.710;2024-03-06T18:41:27;27.90;;;21.95;;
40953;SDS011;26686;50.130;8.710;2024-03-06T18:46:28;25.92;;;21.60;;
40953;SDS011;26686;50.130;8.710;2024-03-06T18:51:30;29.15;;;21.98;;
40953;SDS011;26686;50.130;8.710;2024-03-06T18:56:31;27.00;;;22.10;;
40953;SDS011;26686;50.130;8.710;2024-03-06T19:01:33;30.27;;;24.60;;
40953;SDS011;26686;50.130;8.710;2024-03-06T19:06:36;29.05;;;22.65;;
40953;SDS011;26686;50.130;8.710;2024-03-06T19:11:37;27.30;;;22.75;;
40953;SDS011;26686;50.130;8.710;2024-03-06T19:16:39;29.88;;;24.80;;
40953;SDS011;26686;50.130;8.710;2024-03-06T19:21:41;27.13;;;23.73;;
40953;SDS011;26686;50.130;8.710;2024-03-06T19:26:42;29.75;;;22.70;;
40953;SDS011;26686;50.130;8.710;2024-03-06T19:31:44;30.02;;;22.95;;
40953;SDS011;26686;50.130;8.710;2024-03-06T19:36:47;29.67;;;24.17;;
40953;SDS011;26686;50.130;8.710;2024-03-06T19:41:55;29.15;;;23.10;;
40953;SDS011;26686;50.130;8.710;2024-03-06T19:47:00;26.67;;;23.40;;
40953;SDS011;26686;50.130;8.710;2024-03-06T19:52:02;26.85;;;23.92;;
40953;SDS011;26686;50.130;8.710;2024-03-06T19:57:07;29.85;;;25.13;;
40953;SDS011;26686;50.130;8.710;2024-03-06T20:02:09;25.48;;;22.73;;
40953;SDS011;26686;50.130;8.710;2024-03-06T20:07:10;29.77;;;22.95;;
40953;SDS011;26686;50.130;8.710;2024-03-06T20:12:12;26.75;;;22.45;;
40953;SDS011;26686;50.130;8.710;2024-03-06T20:17:14;26.92;;;23.88;;
40953;SDS011;26686;50.130;8.710;2024-03-06T20:22:17;25.33;;;22.60;;
40953;SDS011;26686;50.130;8.710;2024-03-06T20:27:43;28.33;;;23.73;;
40953;SDS011;26686;50.130;8.710;2024-03-06T20:32:44;27.63;;;24.55;;
40953;SDS011;26686;50.130;8.710;2024-03-06T20:37:47;28.42;;;25.08;;
40953;SDS011;26686;50.130;8.710;2024-03-06T20:42:49;28.20;;;24.30;;
40953;SDS011;26686;50.130;8.710;2024-03-06T20:47:50;28.85;;;25.23;;
40953;SDS011;26686;50.130;8.710;2024-03-06T20:52:52;30.08;;;24.98;;
40953;SDS011;26686;50.130;8.710;2024-03-06T20:57:54;28.90;;;24.40;;
40953;SDS011;26686;50.130;8.710;2024-03-06T21:02:55;30.73;;;23.75;;
40953;SDS011;26686;50.130;8.710;2024-03-06T21:07:57;30.02;;;25.05;;
40953;SDS011;26686;50.130;8.710;2024-03-06T21:12:59;28.45;;;24.00;;
40953;SDS011;26686;50.130;8.710;2024-03-06T21:18:00;35.22;;;25.70;;
40953;SDS011;26686;50.130;8.710;2024-03-06T21:23:04;27.77;;;24.43;;
40953;SDS011;26686;50.130;8.710;2024-03-06T21:28:09;26.70;;;23.85;;
40953;SDS011;26686;50.130;8.710;2024-03-06T21:33:10;28.63;;;24.40;;
40953;SDS011;26686;50.130;8.710;2024-03-06T21:38:17;28.42;;;23.77;;
40953;SDS011;26686;50.130;8.710;2024-03-06T21:43:19;29.20;;;24.92;;
40953;SDS011;26686;50.130;8.710;2024-03-06T21:48:20;26.70;;;23.75;;
40953;SDS011;26686;50.130;8.710;2024-03-06T21:53:22;27.50;;;23.15;;
40953;SDS011;26686;50.130;8.710;2024-03-06T21:58:23;27.48;;;24.40;;
40953;SDS011;26686;50.130;8.710;2024-03-06T22:03:26;29.42;;;23.73;;
40953;SDS011;26686;50.130;8.710;2024-03-06T22:08:30;27.00;;;23.77;;
40953;SDS011;26686;50.130;8.710;2024-03-06T22:13:33;28.95;;;24.52;;
40953;SDS011;26686;50.130;8.710;2024-03-06T22:18:35;27.63;;;22.27;;
40953;SDS011;26686;50.130;8.710;2024-03-06T22:23:37;25.80;;;23.00;;
40953;SDS011;26686;50.130;8.710;2024-03-06T22:28:38;28.60;;;23.95;;
40953;SDS011;26686;50.130;8.710;2024-03-06T22:33:40;26.98;;;23.00;;
40953;SDS011;26686;50.130;8.710;2024-03-06T22:38:46;26.83;;;22.33;;
40953;SDS011;26686;50.130;8.710;2024-03-06T22:43:50;27.77;;;23.83;;
40953;SDS011;26686;50.130;8.710;2024-03-06T22:48:52;25.13;;;22.48;;
40953;SDS011;26686;50.130;8.710;2024-03-06T22:53:55;27.05;;;22.70;;
40953;SDS011;26686;50.130;8.710;2024-03-06T22:58:58;19.90;;;16.87;;
40953;SDS011;26686;50.130;8.710;2024-03-06T23:04:00;27.60;;;23.42;;
40953;SDS011;26686;50.130;8.710;2024-03-06T23:09:02;25.13;;;22.35;;
40953;SDS011;26686;50.130;8.710;2024-03-06T23:14:08;28.27;;;24.70;;
40953;SDS011;26686;50.130;8.710;2024-03-06T23:19:10;28.40;;;24.55;;
40953;SDS011;26686;50.130;8.710;2024-03-06T23:24:12;25.80;;;22.80;;
40953;SDS011;26686;50.130;8.710;2024-03-06T23:29:14;25.00;;;22.27;;
40953;SDS011;26686;50.130;8.710;2024-03-06T23:34:17;28.13;;;23.83;;
40953;SDS011;26686;50.130;8.710;2024-03-06T23:39:18;26.42;;;23.27;;
40953;SDS011;26686;50.130;8.710;2024-03-06T23:44:21;28.20;;;23.75;;
40953;SDS011;26686;50.130;8.710;2024-03-06T23:49:24;27.10;;;23.45;;
40953;SDS011;26686;50.130;8.710;2024-03-06T23:54:26;26.25;;;23.02;;
40953;SDS011;26686;50.130;8.710;2024-03-06T23:59:28;25.42;;;22.42;;
